createdAt,value
2022-08-26T00:00:11.062Z,100624.10
2022-08-26T00:01:11.063Z,100624.80
2022-08-26T00:02:11.118Z,100622.37
2022-08-26T00:03:11.062Z,100623.22
2022-08-26T00:04:11.201Z,100622.29
2022-08-26T00:05:11.071Z,100623.75
2022-08-26T00:06:11.062Z,100624.05
2022-08-26T00:07:11.065Z,100625.02
2022-08-26T00:08:11.070Z,100622.49
2022-08-26T00:09:11.083Z,100627.64
2022-08-26T00:10:11.065Z,100624.58
2022-08-26T00:11:11.071Z,100623.59
2022-08-26T00:12:12.436Z,100623.21
2022-08-26T00:13:11.060Z,100622.96
2022-08-26T00:14:11.063Z,100627.14
2022-08-26T00:15:12.066Z,100628.07
2022-08-26T00:16:11.110Z,100623.23
2022-08-26T00:17:11.065Z,100625.71
2022-08-26T00:18:16.950Z,100626.78
2022-08-26T00:19:14.900Z,100626.84
2022-08-26T00:20:11.061Z,100627.14
2022-08-26T00:21:11.064Z,100629.46
2022-08-26T00:22:11.058Z,100631.03
2022-08-26T00:23:11.055Z,100628.63
2022-08-26T00:24:11.058Z,100631.36
2022-08-26T00:25:11.059Z,100630.48
2022-08-26T00:26:11.159Z,100631.03
2022-08-26T00:27:11.057Z,100630.07
2022-08-26T00:28:11.086Z,100629.96
2022-08-26T00:29:11.057Z,100630.98
2022-08-26T00:30:13.060Z,100631.64
2022-08-26T00:31:11.295Z,100631.84
2022-08-26T00:32:11.058Z,100635.41
2022-08-26T00:33:11.058Z,100632.14
2022-08-26T00:34:11.214Z,100634.26
2022-08-26T00:35:11.061Z,100632.45
2022-08-26T00:36:19.897Z,100630.93
2022-08-26T00:37:16.149Z,100629.80
2022-08-26T00:38:11.061Z,100630.32
2022-08-26T00:39:11.060Z,100631.92
2022-08-26T00:40:14.167Z,100629.55
2022-08-26T00:41:11.060Z,100633.68
2022-08-26T00:42:11.055Z,100633.77
2022-08-26T00:43:11.112Z,100629.20
2022-08-26T00:44:11.248Z,100634.56
2022-08-26T00:45:11.806Z,100633.24
2022-08-26T00:46:15.165Z,100633.87
2022-08-26T00:47:17.065Z,100632.66
2022-08-26T00:48:11.062Z,100631.59
2022-08-26T00:49:15.057Z,100634.67
2022-08-26T00:50:14.063Z,100631.25
2022-08-26T00:51:19.063Z,100636.57
2022-08-26T00:52:13.270Z,100636.89
2022-08-26T00:53:12.064Z,100639.20
2022-08-26T00:54:11.063Z,100637.71
2022-08-26T00:55:20.268Z,100637.41
2022-08-26T00:56:19.060Z,100637.96
2022-08-26T00:57:16.218Z,100635.82
2022-08-26T00:58:11.065Z,100634.80
2022-08-26T00:59:11.063Z,100636.89
2022-08-26T01:00:13.061Z,100635.29
2022-08-26T01:01:11.077Z,100633.37
2022-08-26T01:02:20.981Z,100636.14
2022-08-26T01:03:13.340Z,100634.40
2022-08-26T01:04:11.063Z,100635.26
2022-08-26T01:05:11.065Z,100636.41
2022-08-26T01:06:12.371Z,100636.22
2022-08-26T01:07:11.063Z,100634.35
2022-08-26T01:08:11.070Z,100636.61
2022-08-26T01:09:11.062Z,100634.98
2022-08-26T01:10:12.074Z,100634.10
2022-08-26T01:11:11.072Z,100637.36
2022-08-26T01:12:11.061Z,100636.92
2022-08-26T01:13:11.067Z,100637.29
2022-08-26T01:14:11.075Z,100637.66
2022-08-26T01:15:12.061Z,100639.71
2022-08-26T01:16:12.119Z,100640.50
2022-08-26T01:17:11.067Z,100639.71
2022-08-26T01:18:11.066Z,100641.25
2022-08-26T01:19:18.066Z,100640.76
2022-08-26T01:20:21.058Z,100643.34
2022-08-26T01:21:19.065Z,100642.91
2022-08-26T01:22:15.058Z,100640.46
2022-08-26T01:23:11.056Z,100644.31
2022-08-26T01:24:11.056Z,100643.18
2022-08-26T01:25:11.064Z,100644.59
2022-08-26T01:26:19.659Z,100647.14
2022-08-26T01:27:14.629Z,100646.73
2022-08-26T01:28:14.066Z,100646.82
2022-08-26T01:29:14.058Z,100649.83
2022-08-26T01:30:11.056Z,100649.11
2022-08-26T01:31:12.124Z,100645.98
2022-08-26T01:32:13.058Z,100650.69
2022-08-26T01:33:17.059Z,100651.35
2022-08-26T01:34:19.692Z,100651.12
2022-08-26T01:35:11.059Z,100648.41
2022-08-26T01:36:11.057Z,100650.25
2022-08-26T01:37:17.054Z,100648.08
2022-08-26T01:38:11.058Z,100647.75
2022-08-26T01:39:11.060Z,100648.44
2022-08-26T01:40:13.137Z,100647.81
2022-08-26T01:41:14.164Z,100652.16
2022-08-26T01:42:14.310Z,100650.32
2022-08-26T01:43:13.058Z,100652.05
2022-08-26T01:44:14.062Z,100651.20
2022-08-26T01:45:18.066Z,100650.79
2022-08-26T01:46:11.097Z,100654.48
2022-08-26T01:47:11.058Z,100655.19
2022-08-26T01:48:14.058Z,100655.38
2022-08-26T01:49:11.067Z,100656.04
2022-08-26T01:50:27.626Z,100657.75
2022-08-26T01:51:13.075Z,100661.03
2022-08-26T01:52:11.090Z,100657.43
2022-08-26T01:53:11.322Z,100655.00
2022-08-26T01:54:11.981Z,100653.88
2022-08-26T01:55:11.063Z,100652.66
2022-08-26T01:56:11.063Z,100648.43
2022-08-26T01:57:11.060Z,100653.22
2022-08-26T01:58:16.064Z,100650.57
2022-08-26T01:59:12.237Z,100649.01
2022-08-26T02:00:11.059Z,100651.38
2022-08-26T02:01:11.125Z,100648.57
2022-08-26T02:02:11.070Z,100648.95
2022-08-26T02:03:15.060Z,100649.70
2022-08-26T02:04:19.109Z,100650.80
2022-08-26T02:05:11.066Z,100650.88
2022-08-26T02:06:11.069Z,100651.29
2022-08-26T02:07:11.059Z,100653.66
2022-08-26T02:08:11.065Z,100658.31
2022-08-26T02:09:11.068Z,100659.41
2022-08-26T02:10:11.064Z,100657.37
2022-08-26T02:11:11.065Z,100660.98
2022-08-26T02:12:11.069Z,100658.75
2022-08-26T02:13:11.061Z,100659.04
2022-08-26T02:14:12.085Z,100660.44
2022-08-26T02:15:12.071Z,100661.80
2022-08-26T02:16:11.119Z,100660.86
2022-08-26T02:17:11.066Z,100658.85
2022-08-26T02:18:14.149Z,100657.42
2022-08-26T02:19:17.249Z,100655.88
2022-08-26T02:20:14.995Z,100657.34
2022-08-26T02:21:11.062Z,100655.93
2022-08-26T02:22:13.066Z,100655.77
2022-08-26T02:23:11.055Z,100659.51
2022-08-26T02:24:14.062Z,100658.25
2022-08-26T02:25:20.061Z,100657.80
2022-08-26T02:26:19.323Z,100655.90
2022-08-26T02:27:11.057Z,100656.94
2022-08-26T02:28:11.058Z,100655.79
2022-08-26T02:29:20.058Z,100656.97
2022-08-26T02:30:15.063Z,100653.47
2022-08-26T02:31:11.092Z,100652.04
2022-08-26T02:32:11.065Z,100652.75
2022-08-26T02:33:11.060Z,100652.59
2022-08-26T02:34:15.189Z,100652.06
2022-08-26T02:35:11.059Z,100648.65
2022-08-26T02:36:12.073Z,100650.13
2022-08-26T02:37:11.060Z,100649.25
2022-08-26T02:38:11.292Z,100650.29
2022-08-26T02:39:11.068Z,100650.56
2022-08-26T02:40:12.096Z,100652.49
2022-08-26T02:41:11.056Z,100654.74
2022-08-26T02:42:11.072Z,100653.50
2022-08-26T02:43:11.063Z,100657.77
2022-08-26T02:44:11.056Z,100656.49
2022-08-26T02:45:11.071Z,100655.61
2022-08-26T02:46:11.096Z,100656.29
2022-08-26T02:47:12.122Z,100653.60
2022-08-26T02:48:14.069Z,100653.60
2022-08-26T02:49:11.062Z,100657.54
2022-08-26T02:50:11.057Z,100653.36
2022-08-26T02:51:11.062Z,100653.65
2022-08-26T02:52:11.062Z,100652.55
2022-08-26T02:53:11.062Z,100654.11
2022-08-26T02:54:11.061Z,100651.03
2022-08-26T02:55:11.062Z,100653.95
2022-08-26T02:56:11.061Z,100652.35
2022-08-26T02:57:11.062Z,100651.14
2022-08-26T02:58:11.064Z,100648.67
2022-08-26T02:59:11.061Z,100652.16
2022-08-26T03:00:11.060Z,100650.08
2022-08-26T03:01:15.102Z,100649.58
2022-08-26T03:02:11.204Z,100649.82
2022-08-26T03:03:11.063Z,100651.73
2022-08-26T03:04:11.072Z,100653.78
2022-08-26T03:05:11.063Z,100652.73
2022-08-26T03:06:11.065Z,100653.36
2022-08-26T03:07:11.070Z,100652.96
2022-08-26T03:08:11.065Z,100652.16
2022-08-26T03:09:11.059Z,100651.05
2022-08-26T03:10:13.380Z,100652.79
2022-08-26T03:11:11.070Z,100652.83
2022-08-26T03:12:11.062Z,100651.34
2022-08-26T03:13:11.064Z,100652.94
2022-08-26T03:14:11.071Z,100648.10
2022-08-26T03:15:16.430Z,100645.18
2022-08-26T03:16:13.132Z,100648.10
2022-08-26T03:17:11.066Z,100645.73
2022-08-26T03:18:11.071Z,100647.05
2022-08-26T03:19:11.061Z,100647.05
2022-08-26T03:20:13.768Z,100645.79
2022-08-26T03:21:12.059Z,100645.92
2022-08-26T03:22:11.089Z,100645.04
2022-08-26T03:23:11.059Z,100645.11
2022-08-26T03:24:11.071Z,100645.75
2022-08-26T03:25:11.056Z,100643.28
2022-08-26T03:26:11.057Z,100645.95
2022-08-26T03:27:11.060Z,100641.25
2022-08-26T03:28:11.057Z,100641.94
2022-08-26T03:29:15.068Z,100643.70
2022-08-26T03:30:15.061Z,100643.70
2022-08-26T03:31:11.123Z,100640.58
2022-08-26T03:32:11.066Z,100642.03
2022-08-26T03:33:11.067Z,100642.53
2022-08-26T03:34:11.203Z,100642.64
2022-08-26T03:35:11.055Z,100641.20
2022-08-26T03:36:11.067Z,100642.98
2022-08-26T03:37:11.060Z,100641.89
2022-08-26T03:38:12.057Z,100640.43
2022-08-26T03:39:11.071Z,100640.38
2022-08-26T03:40:11.108Z,100640.05
2022-08-26T03:41:11.060Z,100636.33
2022-08-26T03:42:11.060Z,100636.99
2022-08-26T03:43:11.061Z,100635.91
2022-08-26T03:44:11.058Z,100633.87
2022-08-26T03:45:11.060Z,100634.97
2022-08-26T03:46:11.124Z,100633.84
2022-08-26T03:47:11.060Z,100631.20
2022-08-26T03:48:11.062Z,100629.38
2022-08-26T03:49:11.068Z,100630.26
2022-08-26T03:50:11.061Z,100626.96
2022-08-26T03:51:14.062Z,100632.81
2022-08-26T03:52:11.069Z,100630.66
2022-08-26T03:53:12.838Z,100630.50
2022-08-26T03:54:11.064Z,100627.86
2022-08-26T03:55:11.069Z,100627.64
2022-08-26T03:56:11.064Z,100627.53
2022-08-26T03:57:11.066Z,100627.34
2022-08-26T03:58:11.070Z,100628.24
2022-08-26T03:59:11.064Z,100625.32
2022-08-26T04:00:12.059Z,100625.27
2022-08-26T04:01:13.071Z,100623.14
2022-08-26T04:02:11.557Z,100625.71
2022-08-26T04:03:12.157Z,100626.86
2022-08-26T04:04:12.409Z,100624.33
2022-08-26T04:05:11.064Z,100622.91
2022-08-26T04:06:11.061Z,100620.14
2022-08-26T04:07:11.067Z,100621.46
2022-08-26T04:08:11.065Z,100619.70
2022-08-26T04:09:16.063Z,100621.52
2022-08-26T04:10:11.064Z,100615.47
2022-08-26T04:11:15.072Z,100618.04
2022-08-26T04:12:11.067Z,100618.70
2022-08-26T04:13:11.060Z,100617.96
2022-08-26T04:14:12.067Z,100614.41
2022-08-26T04:15:14.064Z,100614.12
2022-08-26T04:16:11.083Z,100612.47
2022-08-26T04:17:11.063Z,100612.30
2022-08-26T04:18:11.065Z,100611.15
2022-08-26T04:19:12.063Z,100614.65
2022-08-26T04:20:11.064Z,100611.35
2022-08-26T04:21:11.058Z,100611.18
2022-08-26T04:22:11.055Z,100614.43
2022-08-26T04:23:11.056Z,100611.24
2022-08-26T04:24:12.204Z,100612.54
2022-08-26T04:25:11.060Z,100614.08
2022-08-26T04:26:11.058Z,100614.19
2022-08-26T04:27:11.065Z,100613.97
2022-08-26T04:28:11.054Z,100612.16
2022-08-26T04:29:12.058Z,100613.05
2022-08-26T04:30:11.066Z,100613.72
2022-08-26T04:31:15.087Z,100607.71
2022-08-26T04:32:11.052Z,100614.46
2022-08-26T04:33:12.585Z,100608.86
2022-08-26T04:34:11.216Z,100610.67
2022-08-26T04:35:11.054Z,100612.40
2022-08-26T04:36:11.061Z,100607.01
2022-08-26T04:37:11.059Z,100608.27
2022-08-26T04:38:11.057Z,100607.91
2022-08-26T04:39:11.060Z,100610.21
2022-08-26T04:40:11.198Z,100608.84
2022-08-26T04:41:15.455Z,100603.62
2022-08-26T04:42:13.384Z,100607.72
2022-08-26T04:43:11.066Z,100608.66
2022-08-26T04:44:11.056Z,100605.09
2022-08-26T04:45:11.793Z,100606.49
2022-08-26T04:46:11.097Z,100606.93
2022-08-26T04:47:11.062Z,100604.26
2022-08-26T04:48:11.208Z,100604.84
2022-08-26T04:49:12.061Z,100601.49
2022-08-26T04:50:11.142Z,100602.37
2022-08-26T04:51:11.059Z,100604.35
2022-08-26T04:52:11.059Z,100607.82
2022-08-26T04:53:11.062Z,100607.59
2022-08-26T04:54:11.058Z,100605.32
2022-08-26T04:55:11.060Z,100610.38
2022-08-26T04:56:11.069Z,100612.58
2022-08-26T04:57:11.058Z,100610.11
2022-08-26T04:58:13.061Z,100613.07
2022-08-26T04:59:17.124Z,100611.43
2022-08-26T05:00:13.330Z,100610.30
2022-08-26T05:01:11.112Z,100610.86
2022-08-26T05:02:11.061Z,100605.96
2022-08-26T05:03:11.062Z,100607.39
2022-08-26T05:04:11.079Z,100604.24
2022-08-26T05:05:11.060Z,100607.69
2022-08-26T05:06:11.061Z,100607.94
2022-08-26T05:07:11.060Z,100603.93
2022-08-26T05:08:11.208Z,100602.61
2022-08-26T05:09:11.061Z,100605.47
2022-08-26T05:10:11.059Z,100607.82
2022-08-26T05:11:11.063Z,100607.82
2022-08-26T05:12:11.063Z,100609.45
2022-08-26T05:13:12.645Z,100609.89
2022-08-26T05:14:11.065Z,100612.19
2022-08-26T05:15:11.070Z,100615.33
2022-08-26T05:16:11.620Z,100612.41
2022-08-26T05:17:11.061Z,100615.29
2022-08-26T05:18:11.062Z,100612.21
2022-08-26T05:19:11.064Z,100615.41
2022-08-26T05:20:11.062Z,100615.69
2022-08-26T05:21:15.060Z,100613.71
2022-08-26T05:22:13.163Z,100613.66
2022-08-26T05:23:11.059Z,100609.05
2022-08-26T05:24:12.064Z,100612.68
2022-08-26T05:25:11.069Z,100612.24
2022-08-26T05:26:11.063Z,100615.81
2022-08-26T05:27:11.714Z,100617.14
2022-08-26T05:28:11.064Z,100614.17
2022-08-26T05:29:11.061Z,100618.03
2022-08-26T05:30:11.060Z,100620.23
2022-08-26T05:31:17.114Z,100618.54
2022-08-26T05:32:11.261Z,100618.81
2022-08-26T05:33:11.236Z,100617.04
2022-08-26T05:34:11.061Z,100617.21
2022-08-26T05:35:11.069Z,100616.41
2022-08-26T05:36:11.061Z,100616.78
2022-08-26T05:37:11.066Z,100617.17
2022-08-26T05:38:12.964Z,100616.22
2022-08-26T05:39:11.065Z,100614.52
2022-08-26T05:40:11.128Z,100615.34
2022-08-26T05:41:19.071Z,100616.82
2022-08-26T05:42:12.065Z,100619.23
2022-08-26T05:43:14.065Z,100619.41
2022-08-26T05:44:15.064Z,100617.52
2022-08-26T05:45:11.072Z,100616.98
2022-08-26T05:46:11.121Z,100617.57
2022-08-26T05:47:11.067Z,100618.93
2022-08-26T05:48:12.075Z,100617.12
2022-08-26T05:49:12.297Z,100617.11
2022-08-26T05:50:11.061Z,100617.99
2022-08-26T05:51:11.067Z,100615.46
2022-08-26T05:52:11.077Z,100615.12
2022-08-26T05:53:11.063Z,100618.53
2022-08-26T05:54:12.073Z,100618.91
2022-08-26T05:55:11.066Z,100619.84
2022-08-26T05:56:11.062Z,100621.22
2022-08-26T05:57:11.072Z,100617.98
2022-08-26T05:58:11.066Z,100620.84
2022-08-26T05:59:14.481Z,100620.98
2022-08-26T06:00:11.067Z,100622.25
2022-08-26T06:01:17.121Z,100622.47
2022-08-26T06:02:11.064Z,100623.55
2022-08-26T06:03:11.221Z,100623.07
2022-08-26T06:04:11.065Z,100623.88
2022-08-26T06:05:11.064Z,100624.48
2022-08-26T06:06:13.069Z,100624.60
2022-08-26T06:07:13.376Z,100626.13
2022-08-26T06:08:15.062Z,100627.35
2022-08-26T06:09:11.400Z,100628.54
2022-08-26T06:10:31.504Z,100628.87
2022-08-26T06:11:18.470Z,100628.87
2022-08-26T06:12:13.072Z,100628.64
2022-08-26T06:13:12.109Z,100627.71
2022-08-26T06:14:11.068Z,100628.56
2022-08-26T06:15:11.066Z,100634.66
2022-08-26T06:16:11.117Z,100632.61
2022-08-26T06:17:11.068Z,100630.79
2022-08-26T06:18:11.065Z,100635.30
2022-08-26T06:19:11.572Z,100633.69
2022-08-26T06:20:11.069Z,100633.42
2022-08-26T06:21:18.063Z,100637.91
2022-08-26T06:22:18.449Z,100636.52
2022-08-26T06:23:17.074Z,100634.98
2022-08-26T06:24:15.064Z,100635.88
2022-08-26T06:25:15.061Z,100635.97
2022-08-26T06:26:11.200Z,100637.93
2022-08-26T06:27:12.065Z,100637.11
2022-08-26T06:28:11.065Z,100637.50
2022-08-26T06:29:11.064Z,100637.64
2022-08-26T06:30:11.063Z,100638.42
2022-08-26T06:31:11.111Z,100638.51
2022-08-26T06:32:11.065Z,100636.26
2022-08-26T06:33:11.065Z,100638.51
2022-08-26T06:34:11.099Z,100636.64
2022-08-26T06:35:11.874Z,100634.50
2022-08-26T06:36:15.064Z,100631.95
2022-08-26T06:37:11.071Z,100632.37
2022-08-26T06:38:11.063Z,100632.76
2022-08-26T06:39:11.067Z,100629.95
2022-08-26T06:40:11.479Z,100635.67
2022-08-26T06:41:11.071Z,100633.78
2022-08-26T06:42:11.931Z,100633.23
2022-08-26T06:43:11.074Z,100633.56
2022-08-26T06:44:11.067Z,100637.23
2022-08-26T06:45:11.068Z,100633.14
2022-08-26T06:46:11.104Z,100633.69
2022-08-26T06:47:11.069Z,100632.35
2022-08-26T06:48:11.064Z,100634.93
2022-08-26T06:49:11.067Z,100634.12
2022-08-26T06:50:11.073Z,100631.19
2022-08-26T06:51:20.063Z,100631.96
2022-08-26T06:52:11.069Z,100630.64
2022-08-26T06:53:11.075Z,100630.10
2022-08-26T06:54:11.069Z,100629.61
2022-08-26T06:55:11.069Z,100631.42
2022-08-26T06:56:11.105Z,100631.46
2022-08-26T06:57:11.068Z,100633.61
2022-08-26T06:58:11.066Z,100630.18
2022-08-26T06:59:11.070Z,100635.98
2022-08-26T07:00:13.069Z,100635.19
2022-08-26T07:01:18.185Z,100634.41
2022-08-26T07:02:13.523Z,100638.71
2022-08-26T07:03:11.403Z,100636.62
2022-08-26T07:04:11.065Z,100635.36
2022-08-26T07:05:11.069Z,100635.23
2022-08-26T07:06:11.077Z,100637.54
2022-08-26T07:07:13.074Z,100639.46
2022-08-26T07:08:11.068Z,100638.05
2022-08-26T07:09:11.069Z,100642.82
2022-08-26T07:10:11.071Z,100640.92
2022-08-26T07:11:11.068Z,100639.79
2022-08-26T07:12:11.071Z,100641.52
2022-08-26T07:13:11.071Z,100644.22
2022-08-26T07:14:11.068Z,100644.62
2022-08-26T07:15:11.078Z,100641.78
2022-08-26T07:16:11.154Z,100643.46
2022-08-26T07:17:13.705Z,100643.40
2022-08-26T07:18:13.070Z,100643.81
2022-08-26T07:19:11.601Z,100642.25
2022-08-26T07:20:12.068Z,100641.94
2022-08-26T07:21:11.060Z,100645.51
2022-08-26T07:22:11.066Z,100644.41
2022-08-26T07:23:11.767Z,100642.66
2022-08-26T07:24:11.337Z,100645.57
2022-08-26T07:25:12.076Z,100643.19
2022-08-26T07:26:18.074Z,100647.59
2022-08-26T07:27:12.059Z,100647.23
2022-08-26T07:28:11.059Z,100645.34
2022-08-26T07:29:11.068Z,100642.50
2022-08-26T07:30:11.058Z,100643.26
2022-08-26T07:31:11.142Z,100641.23
2022-08-26T07:32:11.067Z,100640.76
2022-08-26T07:33:11.061Z,100641.61
2022-08-26T07:34:11.058Z,100642.25
2022-08-26T07:35:11.068Z,100644.04
2022-08-26T07:36:11.062Z,100645.37
2022-08-26T07:37:11.056Z,100645.98
2022-08-26T07:38:11.062Z,100643.50
2022-08-26T07:39:11.061Z,100643.32
2022-08-26T07:40:11.091Z,100641.72
2022-08-26T07:41:11.062Z,100644.68
2022-08-26T07:42:11.063Z,100644.84
2022-08-26T07:43:11.058Z,100644.23
2022-08-26T07:44:11.069Z,100639.86
2022-08-26T07:45:11.065Z,100638.88
2022-08-26T07:46:15.850Z,100639.32
2022-08-26T07:47:26.129Z,100640.41
2022-08-26T07:48:13.069Z,100638.48
2022-08-26T07:49:11.064Z,100638.78
2022-08-26T07:50:11.065Z,100637.73
2022-08-26T07:51:11.070Z,100641.34
2022-08-26T07:52:11.064Z,100639.85
2022-08-26T07:53:11.130Z,100636.73
2022-08-26T07:54:11.069Z,100635.79
2022-08-26T07:55:11.063Z,100642.18
2022-08-26T07:56:11.065Z,100638.25
2022-08-26T07:57:11.071Z,100643.94
2022-08-26T07:58:11.060Z,100642.61
2022-08-26T07:59:13.631Z,100643.36
2022-08-26T08:00:12.074Z,100645.12
2022-08-26T08:01:11.108Z,100646.17
2022-08-26T08:02:11.243Z,100643.12
2022-08-26T08:03:11.072Z,100639.33
2022-08-26T08:04:11.067Z,100642.26
2022-08-26T08:05:11.101Z,100640.39
2022-08-26T08:06:11.064Z,100642.38
2022-08-26T08:07:11.948Z,100642.04
2022-08-26T08:08:26.621Z,100641.25
2022-08-26T08:09:13.309Z,100640.82
2022-08-26T08:10:11.441Z,100642.30
2022-08-26T08:11:11.067Z,100645.96
2022-08-26T08:12:14.266Z,100646.58
2022-08-26T08:13:11.073Z,100647.09
2022-08-26T08:14:11.626Z,100642.83
2022-08-26T08:15:11.078Z,100644.93
2022-08-26T08:16:12.704Z,100644.04
2022-08-26T08:18:15.456Z,100644.60
2022-08-26T08:19:11.067Z,100642.29
2022-08-26T08:20:11.073Z,100645.42
2022-08-26T08:21:22.191Z,100645.68
2022-08-26T08:22:13.342Z,100643.07
2022-08-26T08:23:11.058Z,100641.87
2022-08-26T08:24:11.060Z,100641.14
2022-08-26T08:25:11.057Z,100642.32
2022-08-26T08:26:12.060Z,100641.79
2022-08-26T08:27:11.066Z,100640.20
2022-08-26T08:28:11.059Z,100643.17
2022-08-26T08:29:11.058Z,100643.87
2022-08-26T08:30:13.770Z,100638.25
2022-08-26T08:31:15.109Z,100643.38
2022-08-26T08:32:11.612Z,100640.67
2022-08-26T08:33:11.068Z,100640.77
2022-08-26T08:34:11.059Z,100644.83
2022-08-26T08:35:11.719Z,100643.33
2022-08-26T08:36:11.068Z,100638.47
2022-08-26T08:37:13.089Z,100641.12
2022-08-26T08:38:11.063Z,100642.27
2022-08-26T08:39:11.069Z,100640.75
2022-08-26T08:40:11.123Z,100642.98
2022-08-26T08:41:19.061Z,100640.88
2022-08-26T08:42:19.069Z,100641.50
2022-08-26T08:43:14.071Z,100643.44
2022-08-26T08:44:19.149Z,100640.73
2022-08-26T08:45:16.801Z,100642.33
2022-08-26T08:46:14.188Z,100639.77
2022-08-26T08:47:21.086Z,100640.38
2022-08-26T08:48:20.060Z,100643.41
2022-08-26T08:49:11.061Z,100643.22
2022-08-26T08:50:19.066Z,100643.70
2022-08-26T08:51:19.066Z,100644.04
2022-08-26T08:52:19.064Z,100642.77
2022-08-26T08:53:17.065Z,100642.31
2022-08-26T08:54:11.064Z,100641.17
2022-08-26T08:55:16.046Z,100644.23
2022-08-26T08:56:21.064Z,100645.70
2022-08-26T08:57:20.068Z,100645.33
2022-08-26T08:58:16.067Z,100642.49
2022-08-26T08:59:19.066Z,100638.75
2022-08-26T09:00:15.066Z,100639.70
2022-08-26T09:01:17.113Z,100639.91
2022-08-26T09:02:21.108Z,100639.64
2022-08-26T09:03:19.072Z,100641.38
2022-08-26T09:04:21.066Z,100639.60
2022-08-26T09:05:21.063Z,100638.66
2022-08-26T09:06:15.065Z,100636.77
2022-08-26T09:07:16.065Z,100635.29
2022-08-26T09:08:15.074Z,100633.44
2022-08-26T09:09:14.067Z,100634.76
2022-08-26T09:10:19.061Z,100634.35
2022-08-26T09:11:11.066Z,100631.09
2022-08-26T09:12:16.068Z,100633.26
2022-08-26T09:13:13.800Z,100633.33
2022-08-26T09:14:11.062Z,100631.59
2022-08-26T09:15:17.074Z,100631.46
2022-08-26T09:16:15.247Z,100629.09
2022-08-26T09:17:19.067Z,100626.72
2022-08-26T09:18:21.071Z,100627.09
2022-08-26T09:19:19.306Z,100625.31
2022-08-26T09:20:21.071Z,100623.57
2022-08-26T09:21:11.059Z,100623.84
2022-08-26T09:22:11.084Z,100624.45
2022-08-26T09:23:11.057Z,100625.01
2022-08-26T09:24:13.968Z,100622.32
2022-08-26T09:25:13.057Z,100623.12
2022-08-26T09:26:19.060Z,100621.79
2022-08-26T09:27:11.441Z,100621.50
2022-08-26T09:28:16.058Z,100619.89
2022-08-26T09:30:11.523Z,100621.54
2022-08-26T09:31:18.117Z,100622.61
2022-08-26T09:32:18.062Z,100616.91
2022-08-26T09:33:15.210Z,100617.94
2022-08-26T09:34:19.152Z,100621.06
2022-08-26T09:35:19.073Z,100616.70
2022-08-26T09:36:18.065Z,100616.52
2022-08-26T09:37:11.058Z,100617.32
2022-08-26T09:38:19.063Z,100617.14
2022-08-26T09:39:21.062Z,100618.09
2022-08-26T09:40:18.187Z,100618.89
2022-08-26T09:41:19.061Z,100616.61
2022-08-26T09:42:16.684Z,100614.59
2022-08-26T09:43:22.136Z,100614.20
2022-08-26T09:44:17.062Z,100616.75
2022-08-26T09:45:15.063Z,100613.68
2022-08-26T09:46:17.131Z,100614.54
2022-08-26T09:47:11.063Z,100613.84
2022-08-26T09:48:11.252Z,100613.51
2022-08-26T09:49:23.326Z,100613.46
2022-08-26T09:50:19.060Z,100611.97
2022-08-26T09:51:19.063Z,100608.26
2022-08-26T09:52:19.070Z,100610.40
2022-08-26T09:53:20.816Z,100609.84
2022-08-26T09:54:15.063Z,100610.18
2022-08-26T09:55:21.081Z,100610.44
2022-08-26T09:56:20.064Z,100605.88
2022-08-26T09:57:20.075Z,100606.26
2022-08-26T09:58:20.067Z,100604.67
2022-08-26T09:59:11.240Z,100603.01
2022-08-26T10:00:21.068Z,100602.99
2022-08-26T10:01:19.462Z,100603.39
2022-08-26T10:02:21.075Z,100602.48
2022-08-26T10:03:18.067Z,100600.76
2022-08-26T10:04:21.127Z,100599.70
2022-08-26T10:05:15.068Z,100597.97
2022-08-26T10:06:21.299Z,100596.25
2022-08-26T10:07:11.068Z,100597.09
2022-08-26T10:08:21.067Z,100601.68
2022-08-26T10:09:13.066Z,100600.36
2022-08-26T10:10:21.067Z,100597.33
2022-08-26T10:11:18.074Z,100601.71
2022-08-26T10:12:15.068Z,100602.37
2022-08-26T10:13:17.066Z,100604.57
2022-08-26T10:14:19.071Z,100604.50
2022-08-26T10:15:12.071Z,100606.54
2022-08-26T10:16:18.130Z,100604.72
2022-08-26T10:17:16.067Z,100603.14
2022-08-26T10:18:17.070Z,100606.59
2022-08-26T10:19:15.071Z,100601.75
2022-08-26T10:20:23.434Z,100605.49
2022-08-26T10:21:19.153Z,100602.41
2022-08-26T10:22:19.059Z,100600.30
2022-08-26T10:23:13.057Z,100597.57
2022-08-26T10:24:11.386Z,100595.75
2022-08-26T10:25:15.057Z,100597.41
2022-08-26T10:26:19.061Z,100596.67
2022-08-26T10:27:21.062Z,100594.09
2022-08-26T10:28:17.061Z,100595.70
2022-08-26T10:29:17.060Z,100595.52
2022-08-26T10:30:16.058Z,100593.40
2022-08-26T10:31:21.118Z,100594.42
2022-08-26T10:32:21.182Z,100599.36
2022-08-26T10:33:13.058Z,100593.94
2022-08-26T10:34:12.558Z,100592.57
2022-08-26T10:35:14.070Z,100592.48
2022-08-26T10:36:15.327Z,100591.71
2022-08-26T10:37:21.071Z,100593.89
2022-08-26T10:38:14.060Z,100592.61
2022-08-26T10:39:16.061Z,100590.51
2022-08-26T10:40:17.155Z,100588.42
2022-08-26T10:41:19.061Z,100588.63
2022-08-26T10:42:19.072Z,100588.02
2022-08-26T10:43:17.065Z,100585.74
2022-08-26T10:44:12.061Z,100587.65
2022-08-26T10:45:16.062Z,100582.08
2022-08-26T10:46:14.196Z,100583.37
2022-08-26T10:47:19.065Z,100586.68
2022-08-26T10:48:16.062Z,100584.57
2022-08-26T10:49:15.065Z,100582.24
2022-08-26T10:50:11.066Z,100584.32
2022-08-26T10:51:11.064Z,100579.91
2022-08-26T10:52:19.061Z,100580.65
2022-08-26T10:53:17.064Z,100584.18
2022-08-26T10:54:21.076Z,100581.95
2022-08-26T10:55:21.065Z,100579.12
2022-08-26T10:56:19.378Z,100577.50
2022-08-26T10:57:21.062Z,100571.19
2022-08-26T10:58:26.632Z,100570.30
2022-08-26T10:59:21.069Z,100573.93
2022-08-26T11:00:21.073Z,100570.43
2022-08-26T11:01:23.338Z,100570.10
2022-08-26T11:02:24.912Z,100571.73
2022-08-26T11:03:22.568Z,100569.17
2022-08-26T11:04:19.133Z,100564.87
2022-08-26T11:05:16.076Z,100565.98
2022-08-26T11:06:19.068Z,100564.68
2022-08-26T11:07:19.068Z,100565.20
2022-08-26T11:08:21.068Z,100567.38
2022-08-26T11:09:11.145Z,100563.88
2022-08-26T11:10:16.077Z,100569.04
2022-08-26T11:11:11.066Z,100564.38
2022-08-26T11:12:15.068Z,100566.21
2022-08-26T11:13:11.233Z,100567.20
2022-08-26T11:14:29.201Z,100568.83
2022-08-26T11:15:24.631Z,100570.30
2022-08-26T11:16:11.147Z,100564.47
2022-08-26T11:17:11.077Z,100564.12
2022-08-26T11:18:17.070Z,100563.00
2022-08-26T11:19:12.089Z,100564.43
2022-08-26T11:20:15.075Z,100559.45
2022-08-26T11:21:19.057Z,100561.35
2022-08-26T11:22:23.095Z,100560.65
2022-08-26T11:23:19.058Z,100564.75
2022-08-26T11:24:15.064Z,100563.41
2022-08-26T11:25:11.501Z,100562.11
2022-08-26T11:26:29.995Z,100561.98